East Springfield, Pennsylvania
Current Conditions -  °F | °C
As of 4:10 PM on Thursday 20 Nov 2014 (Local Time) from KERI Reporting Station
Light Snow Light Snow  
Wind Chill: -10°   Ceiling: 2100
Heat Index: -4°   Visibility: 1mi
Dew Point: -9°   Wind: 12mph
Humidity: 69%   Direction: 240°WSW
Pressure: 29.93"   Gusts: 26mph
Location:  41.96°N, 80.41°W
Report Text: KERI 202110Z 24010G23KT 1SM R06/4500VP6000FT -SN FEW013 BKN021 OVC027 M04/M09 A2993 RMK AO2 SNB2053 P0000 T10391089
Loading
Personal Weather Stations






























Interactive Weather Map New forecast layout! Learn more

10-Day Weather Forecast

Advertisements
Track Severe Weather on mobile